AirNav   ATP
 
 1457 users online  

88G Gradolph Field Airport
Petersburg, Michigan, USA

GOING TO PETERSBURG?


FAA INFORMATION EFFECTIVE 29 MARCH 2018

Location

FAA Identifier: 88G
Lat/Long: 41-55-11.1660N / 083-44-05.7790W
41-55.186100N / 083-44.096317W
41.9197683 / -83.7349386
(estimated)
Elevation: 673 ft. / 205.1 m (surveyed)
Variation: 05W (1985)
From city: 2 miles NW of PETERSBURG, MI
Time zone: UTC -4 (UTC -5 during Standard Time)
Zip code: 49238

Airport Operations

Airport use: Open to the public
Activation date: 04/1968
Control tower: no
ARTCC: CLEVELAND CENTER
FSS: LANSING FLIGHT SERVICE STATION
NOTAMs facility: LAN (NOTAM-D service available)
Attendance: CONTINUOUS
Wind indicator: lighted
Segmented circle: no
Lights: FOR LIRL RY 09/27 CALL 734-279-1679.
Beacon: white-green (lighted land airport)
ROTG BCN OTS INDEFLY. FOR ROTG BCN CALL 734-279-1679.

Airport Communications

CTAF: 122.9
WX AWOS-3 at DUH (12 nm S): 119.175 (734-856-1563)
WX AWOS-3 at TTF (13 nm E): 119.075 (734-384-0259)
WX ASOS at ADG (16 nm W): 118.375 (517-265-9089)
WX ASOS at ARB (18 nm N): PHONE 734-668-7173

Nearby radio navigation aids

VOR radial/distance  VOR name  Freq  Var
CRLr241/14.6CARLETON VOR/DME115.7003W
DXOr229/24.1DETROIT VOR/DME113.4006W
VWVr353/28.4WATERVILLE VOR/DME113.1002W
SVMr195/30.0SALEM VORTAC114.3003W
JXNr127/38.1JACKSON VOR/DME109.6005W

 
NDB name  Hdg/Dist  Freq  Var  ID
TECUMSEH141/9.623906WTCU - -.-. ..-
ADRIAN085/15.627806WADG .- -.. --.
GROSSE ILE254/28.141907WRYS .-. -.-- ...

Airport Services

Parking: hangars and tiedowns
Airframe service: NONE
Powerplant service: NONE
Bottled oxygen: NONE
Bulk oxygen: NONE

Runway Information

Runway 9/27

Dimensions: 2306 x 110 ft. / 703 x 34 m
Surface: turf, in good condition
Runway edge lights: non-standard
NSTD LIRL DUE TO LENS COLOR & CONFIGURATION.
Runway edge markings: RWY 09 /27 & DSPLCD THLDS MKD WITH YELLOW CONES.
RUNWAY 9  RUNWAY 27
Latitude: 41-55.185833N41-55.185833N
Longitude: 083-44.358500W083-43.833667W
Elevation: 673.0 ft.673.0 ft.
Traffic pattern: leftleft
Displaced threshold: 310 ft.230 ft.
Runway end identifier lights: nono
Obstructions: 45 ft. trees, 60 ft. right of centerline
RWY 09 APCH RATIO 3:1 FM DSPLCD THLD TO +45 FT TREES; 150 FT FM DSPLCD THLD 70 FT R.
22 ft. pline, marked, 228 ft. from runway, 10:1 slope to clear
APCH RATIO 5:1 FM DSPLCD THLD TO +50 FT TREES 284 FT FM DSPLCD THLD; 121 FT R.

Airport Ownership and Management from official FAA records

Ownership: Privately-owned
Owner: FRED E. WAIBEL
1785 DENNISON ROAD, BOX 308
PETERSBURG, MI 49270
Phone 734-279-1679
Manager: FRED E. WAIBEL
1785 DENNISON ROAD, BOX 308
PETERSBURG, MI 49270
Phone 734-279-1679

Airport Operational Statistics

Aircraft based on the field: 1
Single engine airplanes: 1
    
Aircraft operations: 100/year *
50% transient general aviation
50% local general aviation
* for 12-month period ending 31 December 2014

Additional Remarks

SOFT WHEN WET.
FOR CD CTC DETROIT APCH AT 800-499-8181.

Instrument Procedures

There are no published instrument procedures at 88G.

Some nearby airports with instrument procedures:

3TE - Al Meyers Airport (11 nm NW)
KDUH - Toledo Suburban Airport (12 nm S)
KTTF - Custer Airport (13 nm E)
KADG - Lenawee County Airport (16 nm W)
KARB - Ann Arbor Municipal Airport (18 nm N)
 
Loc | Ops | Rwys | IFR | FBO | Links
Com | Nav | Svcs | Stats | Notes

AirNav Hotels Sweepstakes
 
Area around 88G (Gradolph Field Airport)
 
Road maps at: MapQuest Bing Google
 
Aerial photo
WARNING: Photo may not be current or correct
Aerial photo of 88G (Gradolph Field Airport)
Photo credit: Mark - www.LocalHangar.com

Do you have a better or more recent aerial photo of Gradolph Field Airport that you would like to share? If so, please send us your photo.

 
Sectional chart

 
Airport distance calculator
Flying to Gradolph Field Airport? Find the distance to fly.

From to 88G

Sunrise and sunset
Times for 25-Apr-2018
 Local
(UTC-4)
 Zulu
(UTC)
Morning civil twilight06:1110:11
Sunrise06:4010:40
Sunset20:2600:26
Evening civil twilight20:5500:55

Current date and time
Zulu (UTC)  25-Apr-2018 21:06:04
Local (UTC-4)  25-Apr-2018 17:06:04
 
METAR
KDUH 
12nm S 
252055Z AUTO 32008KT 290V350 10SM SCT050 17/02 A2990 RMK AO2 T01660023
KTTF 
14nm E 
252057Z AUTO 36010G18KT 320V040 10SM BKN050 15/02 A2990 RMK AO2 T01530024
KADG 
16nm W 
252053Z AUTO 36012G19KT 10SM CLR 17/02 A2992 RMK AO2 SLP134 T01670017 58005 TSNO
KARB 
18nm N 
734-668-7173
252053Z 31009KT 10SM SCT050 16/03 A2991 RMK AO2 SLP128 T01560028 56004
KTOL 
20nm S 
252052Z 31009KT 10SM SCT060 18/04 A2990 RMK AO2 SLP125 T01780039 58005
KYIP 
21nm NE 
252053Z 02011KT 10SM SCT050 17/04 A2991 RMK AO2 SLP127 T01720044 58003
TAF
KTOL 
20nm S 
251755Z 2518/2618 34010KT P6SM SCT025 BKN035 FM252100 34012KT P6SM SCT035 FM260000 35003KT P6SM FEW035
KYIP 
21nm NE 
251946Z 2520/2618 32012G18KT P6SM SCT050 TEMPO 2520/2523 BKN050 FM252300 32007KT P6SM SCT050 FM261000 27003KT 3SM BR SKC FM261300 26005KT P6SM SKC
NOTAMs
Click for the latest NOTAMs
NOTAMs are issued by the DoD/FAA and will open in a separate window not controlled by AirNav.

 

 
 

Would you like to see your business listed on this page?

 If your business provides an interesting product or service to pilots, flight crews, aircraft, or users of the Gradolph Field Airport, you should consider listing it here.  To start the listing process, click on the button below
 
Add a business
 

Other Pages about Gradolph Field Airport

Page from the Michigan Airport Directory (PDF)
 
Update a link
 
Copyright © AirNav, LLC. All rights reserved. Privacy Policy  Contact